createdAt,value
2022-12-19T00:01:36.252Z,-8.23
2022-12-19T00:04:08.132Z,-8.59
2022-12-19T00:06:43.658Z,-8.93
2022-12-19T00:09:12.165Z,-9.30
2022-12-19T00:11:39.433Z,-9.47
2022-12-19T00:14:08.418Z,-9.05
2022-12-19T00:16:35.398Z,-8.35
2022-12-19T00:19:02.492Z,-8.09
2022-12-19T00:21:34.810Z,-8.41
2022-12-19T00:24:08.688Z,-8.68
2022-12-19T00:26:48.827Z,-9.14
2022-12-19T00:29:16.318Z,-9.17
2022-12-19T00:31:44.193Z,-9.28
2022-12-19T00:34:11.084Z,-9.30
2022-12-19T00:36:39.676Z,-8.72
2022-12-19T00:39:07.823Z,-8.46
2022-12-19T00:41:36.324Z,-8.60
2022-12-19T00:44:07.071Z,-8.78
2022-12-19T00:46:35.054Z,-9.01
2022-12-19T00:49:03.424Z,-9.27
2022-12-19T00:51:32.839Z,-9.25
2022-12-19T00:54:00.574Z,-9.27
2022-12-19T00:56:34.467Z,-8.72
2022-12-19T00:59:06.650Z,-8.14
2022-12-19T01:01:36.652Z,-8.16
2022-12-19T01:04:27.585Z,-8.19
2022-12-19T01:06:52.463Z,-8.48
2022-12-19T01:09:22.152Z,-8.96
2022-12-19T01:12:08.058Z,-9.09
2022-12-19T01:14:34.864Z,-9.37
2022-12-19T01:17:01.950Z,-9.01
2022-12-19T01:19:29.357Z,-8.50
2022-12-19T01:21:56.276Z,-8.27
2022-12-19T01:24:24.083Z,-8.26
2022-12-19T01:26:50.981Z,-8.39
2022-12-19T01:29:19.945Z,-9.00
2022-12-19T01:31:47.930Z,-9.16
2022-12-19T01:34:15.035Z,-9.33
2022-12-19T01:36:42.015Z,-9.35
2022-12-19T01:39:09.214Z,-8.74
2022-12-19T01:41:36.661Z,-8.73
2022-12-19T01:44:05.622Z,-8.74
2022-12-19T01:46:38.133Z,-8.93
2022-12-19T01:49:12.298Z,-9.34
2022-12-19T01:51:42.931Z,-9.52
2022-12-19T01:54:11.863Z,-9.50
2022-12-19T01:56:41.008Z,-8.79
2022-12-19T01:59:10.115Z,-8.16
2022-12-19T02:01:41.530Z,-8.23
2022-12-19T02:04:23.843Z,-8.60
2022-12-19T02:06:55.963Z,-8.88
2022-12-19T02:09:24.073Z,-9.13
2022-12-19T02:11:51.511Z,-9.47
2022-12-19T02:14:18.683Z,-9.49
2022-12-19T02:17:09.067Z,-8.93
2022-12-19T02:19:55.281Z,-8.21
2022-12-19T02:22:25.031Z,-8.23
2022-12-19T02:25:18.334Z,-8.53
2022-12-19T02:28:11.239Z,-8.80
2022-12-19T02:30:50.848Z,-8.97
2022-12-19T02:33:24.658Z,-9.19
2022-12-19T02:35:53.205Z,-9.18
2022-12-19T02:38:47.017Z,-8.58
2022-12-19T02:41:20.280Z,-7.86
2022-12-19T02:43:49.046Z,-7.69
2022-12-19T02:46:18.265Z,-7.95
2022-12-19T02:48:45.754Z,-8.25
2022-12-19T02:51:13.020Z,-8.45
2022-12-19T02:53:39.994Z,-8.59
2022-12-19T02:56:29.221Z,-8.88
2022-12-19T02:59:30.554Z,-8.86
2022-12-19T03:02:01.261Z,-7.91
2022-12-19T03:04:45.980Z,-7.44
2022-12-19T03:07:35.650Z,-7.56
2022-12-19T03:10:12.204Z,-7.79
2022-12-19T03:12:53.295Z,-8.03
2022-12-19T03:15:20.059Z,-8.25
2022-12-19T03:17:47.035Z,-8.48
2022-12-19T03:20:26.640Z,-8.67
2022-12-19T03:22:53.437Z,-8.50
2022-12-19T03:25:20.560Z,-7.62
2022-12-19T03:27:47.430Z,-7.14
2022-12-19T03:30:14.270Z,-7.31
2022-12-19T03:32:41.960Z,-7.66
2022-12-19T03:35:13.526Z,-8.02
2022-12-19T03:37:40.984Z,-8.23
2022-12-19T03:40:14.783Z,-8.44
2022-12-19T03:43:00.462Z,-8.96
2022-12-19T03:45:42.447Z,-8.77
2022-12-19T03:48:18.009Z,-7.71
2022-12-19T03:50:54.282Z,-7.24
2022-12-19T03:53:26.825Z,-7.30
2022-12-19T03:55:58.036Z,-7.55
2022-12-19T03:58:31.037Z,-8.09
2022-12-19T04:00:57.802Z,-8.46
2022-12-19T04:03:24.938Z,-8.58
2022-12-19T04:05:53.245Z,-8.80
2022-12-19T04:08:20.154Z,-9.21
2022-12-19T04:10:58.672Z,-8.56
2022-12-19T04:13:47.973Z,-7.77
2022-12-19T04:16:19.740Z,-7.58
2022-12-19T04:18:50.832Z,-7.77
2022-12-19T04:21:21.918Z,-8.14
2022-12-19T04:23:52.548Z,-8.45
2022-12-19T04:26:19.495Z,-8.75
2022-12-19T04:28:52.455Z,-8.93
2022-12-19T04:31:19.326Z,-8.97
2022-12-19T04:33:46.390Z,-8.37
2022-12-19T04:36:15.451Z,-8.17
2022-12-19T04:38:42.427Z,-8.28
2022-12-19T04:41:09.449Z,-8.56
2022-12-19T04:43:36.433Z,-8.67
2022-12-19T04:46:03.533Z,-8.91
2022-12-19T04:48:30.472Z,-9.07
2022-12-19T04:50:57.488Z,-9.26
2022-12-19T04:53:24.584Z,-9.11
2022-12-19T04:55:59.980Z,-8.33
2022-12-19T04:58:26.888Z,-7.98
2022-12-19T05:00:53.807Z,-8.32
2022-12-19T05:03:21.283Z,-8.79
2022-12-19T05:05:48.299Z,-8.86
2022-12-19T05:08:15.420Z,-8.97
2022-12-19T05:10:42.571Z,-9.07
2022-12-19T05:13:09.847Z,-9.22
2022-12-19T05:15:36.793Z,-8.84
2022-12-19T05:18:04.714Z,-8.08
2022-12-19T05:20:31.669Z,-7.91
2022-12-19T05:23:01.856Z,-8.05
2022-12-19T05:25:34.632Z,-8.69
2022-12-19T05:28:01.872Z,-9.01
2022-12-19T05:30:28.922Z,-9.25
2022-12-19T05:32:55.967Z,-9.40
2022-12-19T05:35:23.118Z,-9.30
2022-12-19T05:37:50.175Z,-8.50
2022-12-19T05:40:17.096Z,-7.96
2022-12-19T05:42:44.344Z,-7.95
2022-12-19T05:45:11.604Z,-8.11
2022-12-19T05:47:38.529Z,-8.35
2022-12-19T05:50:06.217Z,-8.57
2022-12-19T05:52:33.035Z,-8.82
2022-12-19T05:54:59.979Z,-9.02
2022-12-19T05:57:27.101Z,-8.82
2022-12-19T05:59:54.608Z,-8.10
2022-12-19T06:02:21.661Z,-7.66
2022-12-19T06:04:48.862Z,-7.66
2022-12-19T06:07:20.723Z,-7.82
2022-12-19T06:09:48.611Z,-8.12
2022-12-19T06:12:15.559Z,-8.35
2022-12-19T06:14:42.680Z,-8.54
2022-12-19T06:17:09.870Z,-8.76
2022-12-19T06:19:39.202Z,-8.79
2022-12-19T06:22:06.834Z,-8.15
2022-12-19T06:24:33.748Z,-7.48
2022-12-19T06:27:00.808Z,-7.40
2022-12-19T06:29:27.923Z,-7.45
2022-12-19T06:31:55.207Z,-7.60
2022-12-19T06:34:55.217Z,-7.83
2022-12-19T06:37:09.618Z,-8.10
2022-12-19T06:39:36.841Z,-8.35
2022-12-19T06:42:22.301Z,-8.54
2022-12-19T06:44:54.346Z,-8.41
2022-12-19T06:47:24.826Z,-7.52
2022-12-19T06:49:51.923Z,-7.00
2022-12-19T06:52:18.817Z,-6.99
2022-12-19T06:54:45.849Z,-7.17
2022-12-19T06:57:13.002Z,-7.39
2022-12-19T06:59:39.861Z,-7.58
2022-12-19T07:02:15.263Z,-7.80
2022-12-19T07:04:48.932Z,-8.06
2022-12-19T07:07:15.848Z,-8.33
2022-12-19T07:09:42.976Z,-8.24
2022-12-19T07:12:09.832Z,-7.50
2022-12-19T07:14:37.075Z,-6.95
2022-12-19T07:17:04.323Z,-6.82
2022-12-19T07:19:31.540Z,-6.96
2022-12-19T07:21:59.450Z,-7.14
2022-12-19T07:24:26.485Z,-7.29
2022-12-19T07:26:53.645Z,-7.48
2022-12-19T07:29:20.733Z,-7.85
2022-12-19T07:31:47.602Z,-7.96
2022-12-19T07:34:14.681Z,-8.11
2022-12-19T07:36:41.732Z,-8.13
2022-12-19T07:39:08.880Z,-7.30
2022-12-19T07:41:37.015Z,-6.72
2022-12-19T07:44:05.374Z,-6.74
2022-12-19T07:46:32.244Z,-6.85
2022-12-19T07:48:59.767Z,-7.00
2022-12-19T07:51:27.382Z,-7.31
2022-12-19T09:21:28.645Z,-7.60
2022-12-19T09:24:03.457Z,-6.51
2022-12-19T09:26:34.947Z,-5.75
2022-12-19T09:29:06.816Z,-5.59
2022-12-19T09:31:51.531Z,-5.66
2022-12-19T09:34:37.102Z,-6.08
2022-12-19T09:37:10.449Z,-6.29
2022-12-19T09:39:45.708Z,-6.25
2022-12-19T09:42:14.827Z,-6.04
2022-12-19T09:44:51.644Z,-5.31
2022-12-19T09:47:28.763Z,-5.28
2022-12-19T09:49:55.752Z,-5.47
2022-12-19T09:52:33.440Z,-5.83
2022-12-19T09:55:19.390Z,-6.23
2022-12-19T09:58:00.754Z,-6.41
2022-12-19T10:00:48.920Z,-6.43
2022-12-19T10:03:38.753Z,-6.33
2022-12-19T10:07:19.796Z,-6.22
2022-12-19T10:11:47.647Z,-5.35
2022-12-19T10:12:43.243Z,-4.89
2022-12-19T10:15:19.928Z,-5.75
2022-12-19T10:18:08.674Z,-5.78
2022-12-19T10:20:38.224Z,-5.76
2022-12-19T10:23:26.116Z,-5.83
2022-12-19T10:25:56.458Z,-6.06
2022-12-19T10:28:32.406Z,-5.98
2022-12-19T10:31:22.715Z,-5.16
2022-12-19T10:34:03.803Z,-4.81
2022-12-19T10:37:11.918Z,-4.91
2022-12-19T10:39:35.293Z,-5.08
2022-12-19T10:42:11.027Z,-5.54
2022-12-19T10:44:38.184Z,-5.91
2022-12-19T10:47:07.896Z,-6.19
2022-12-19T10:49:34.910Z,-6.37
2022-12-19T10:52:07.375Z,-6.61
2022-12-19T10:54:39.054Z,-6.44
2022-12-19T10:57:21.758Z,-5.61
2022-12-19T10:59:58.986Z,-4.97
2022-12-19T11:02:35.254Z,-4.97
2022-12-19T11:05:03.331Z,-5.16
2022-12-19T11:07:31.842Z,-5.58
2022-12-19T11:10:55.083Z,-6.00
2022-12-19T11:17:02.949Z,-6.25
2022-12-19T11:21:29.817Z,-6.41
2022-12-19T11:25:35.856Z,-6.65
2022-12-19T11:29:31.803Z,-6.69
2022-12-19T11:29:31.810Z,-6.65
2022-12-19T11:29:34.223Z,-6.73
2022-12-19T11:33:15.268Z,-5.18
2022-12-19T11:35:50.582Z,-5.84
2022-12-19T11:38:40.353Z,-6.22
2022-12-19T11:41:13.500Z,-6.09
2022-12-19T11:43:58.608Z,-6.36
2022-12-19T11:46:33.407Z,-6.81
2022-12-19T11:49:20.661Z,-7.12
2022-12-19T11:52:06.664Z,-6.92
2022-12-19T11:54:57.039Z,-6.01
2022-12-19T11:57:24.095Z,-5.90
2022-12-19T11:59:51.903Z,-6.26
2022-12-19T12:02:25.153Z,-6.23
2022-12-19T12:05:33.066Z,-6.34
2022-12-19T12:08:52.197Z,-6.69
2022-12-19T12:19:41.894Z,-6.85
2022-12-19T12:22:50.833Z,-6.20
2022-12-19T12:27:17.910Z,-5.93
2022-12-19T12:31:19.239Z,-6.29
2022-12-19T12:31:29.276Z,-6.93
2022-12-19T12:31:49.678Z,-7.20
2022-12-19T12:31:52.366Z,-7.45
2022-12-19T12:35:50.036Z,-6.75
2022-12-19T12:42:05.026Z,-6.80
2022-12-19T12:44:45.067Z,-7.19
2022-12-19T12:47:24.081Z,-7.33
2022-12-19T12:49:58.613Z,-7.42
2022-12-19T12:52:58.036Z,-6.84
2022-12-19T12:55:30.927Z,-6.32
2022-12-19T12:57:58.002Z,-6.55
2022-12-19T13:00:34.186Z,-6.96
2022-12-19T13:03:11.914Z,-7.12
2022-12-19T13:05:46.249Z,-7.34
2022-12-19T13:08:44.420Z,-7.44
2022-12-19T13:11:37.791Z,-6.60
2022-12-19T13:14:06.189Z,-6.42
2022-12-19T13:16:42.480Z,-6.59
2022-12-19T13:19:39.283Z,-6.90
2022-12-19T13:22:09.426Z,-7.29
2022-12-19T13:24:46.053Z,-7.43
2022-12-19T13:27:19.373Z,-7.33
2022-12-19T13:29:55.559Z,-6.69
2022-12-19T13:32:40.722Z,-6.41
2022-12-19T13:36:44.301Z,-6.53
2022-12-19T13:39:48.076Z,-6.76
2022-12-19T13:40:56.713Z,-7.07
2022-12-19T13:43:49.605Z,-7.40
2022-12-19T13:46:22.904Z,-7.41
2022-12-19T13:48:51.742Z,-6.69
2022-12-19T13:51:18.452Z,-6.54
2022-12-19T13:53:45.321Z,-6.67
2022-12-19T13:56:13.214Z,-6.97
2022-12-19T13:58:59.401Z,-7.23
2022-12-19T14:01:28.048Z,-7.46
2022-12-19T14:03:57.529Z,-7.73
2022-12-19T14:06:43.479Z,-7.40
2022-12-19T14:11:26.824Z,-6.77
2022-12-19T14:14:00.504Z,-6.73
2022-12-19T14:15:33.749Z,-7.05
2022-12-19T14:18:41.724Z,-7.32
2022-12-19T14:22:01.617Z,-7.65
2022-12-19T14:23:43.721Z,-7.86
2022-12-19T14:28:19.924Z,-7.29
2022-12-19T14:30:28.487Z,-6.95
2022-12-19T14:33:39.115Z,-7.12
2022-12-19T14:36:06.823Z,-7.45
2022-12-19T14:39:20.264Z,-7.79
2022-12-19T14:41:08.113Z,-8.06
2022-12-19T14:44:00.554Z,-7.47
2022-12-19T14:53:34.302Z,-6.83
2022-12-19T14:54:16.487Z,-6.88
2022-12-19T14:54:26.805Z,-7.17
2022-12-19T14:56:04.285Z,-7.52
2022-12-19T14:58:55.653Z,-7.81
2022-12-19T15:01:10.011Z,-7.89
2022-12-19T15:03:42.360Z,-7.31
2022-12-19T15:06:19.897Z,-7.19
2022-12-19T15:11:04.268Z,-7.37
2022-12-19T15:14:49.426Z,-7.70
2022-12-19T15:15:17.647Z,-8.09
2022-12-19T15:17:46.983Z,-8.06
2022-12-19T15:20:14.018Z,-7.56
2022-12-19T15:22:41.413Z,-7.48
2022-12-19T15:25:35.961Z,-7.65
2022-12-19T15:28:00.200Z,-7.90
2022-12-19T15:30:28.457Z,-8.10
2022-12-19T15:32:55.351Z,-8.03
2022-12-19T15:35:22.559Z,-7.44
2022-12-19T15:37:49.459Z,-7.25
2022-12-19T15:40:17.680Z,-7.38
2022-12-19T15:42:46.571Z,-7.63
2022-12-19T15:45:18.562Z,-7.86
2022-12-19T15:47:45.561Z,-8.07
2022-12-19T15:50:17.120Z,-7.91
2022-12-19T15:52:44.207Z,-7.37
2022-12-19T15:55:15.465Z,-7.31
2022-12-19T15:57:44.718Z,-7.50
2022-12-19T16:00:23.125Z,-7.74
2022-12-19T16:05:38.137Z,-8.25
2022-12-19T16:08:12.398Z,-7.85
2022-12-19T16:10:40.109Z,-7.21
2022-12-19T16:13:14.000Z,-7.17
2022-12-19T16:15:40.976Z,-7.38
2022-12-19T16:18:09.735Z,-7.57
2022-12-19T16:20:37.517Z,-7.85
2022-12-19T16:23:04.661Z,-8.14
2022-12-19T16:25:42.444Z,-8.07
2022-12-19T16:28:20.969Z,-7.53
2022-12-19T16:30:49.828Z,-7.43
2022-12-19T16:33:22.163Z,-7.61
2022-12-19T16:36:06.519Z,-7.90
2022-12-19T16:38:35.040Z,-8.20
2022-12-19T16:41:02.048Z,-8.33
2022-12-19T16:43:36.887Z,-7.80
2022-12-19T16:46:05.100Z,-7.51
2022-12-19T16:48:35.120Z,-7.56
2022-12-19T16:51:02.208Z,-7.85
2022-12-19T16:53:29.328Z,-8.10
2022-12-19T16:55:56.241Z,-8.32
2022-12-19T16:58:25.460Z,-8.45
2022-12-19T17:00:54.296Z,-8.14
2022-12-19T17:03:40.138Z,-7.63
2022-12-19T17:06:11.979Z,-7.59
2022-12-19T17:08:39.050Z,-7.81
2022-12-19T17:11:12.446Z,-8.01
2022-12-19T17:13:39.585Z,-8.21
2022-12-19T17:16:06.820Z,-8.14
2022-12-19T17:18:35.627Z,-7.65
2022-12-19T17:21:02.869Z,-7.56
2022-12-19T17:23:31.766Z,-7.70
2022-12-19T17:25:59.815Z,-7.93
2022-12-19T17:28:27.648Z,-8.15
2022-12-19T17:30:56.968Z,-8.26
2022-12-19T17:33:28.166Z,-7.62
2022-12-19T17:35:54.927Z,-7.38
2022-12-19T17:38:22.035Z,-7.39
2022-12-19T17:40:49.286Z,-7.53
2022-12-19T17:43:16.257Z,-7.82
2022-12-19T17:45:44.332Z,-8.15
2022-12-19T17:48:22.921Z,-8.19
2022-12-19T17:50:50.796Z,-7.72
2022-12-19T17:53:17.840Z,-7.68
2022-12-19T17:55:45.013Z,-7.77
2022-12-19T17:58:12.254Z,-7.99
2022-12-19T18:00:39.337Z,-8.18
2022-12-19T18:03:18.433Z,-8.17
2022-12-19T18:05:46.013Z,-7.63
2022-12-19T18:08:31.757Z,-7.56
2022-12-19T18:11:03.005Z,-7.74
2022-12-19T18:13:30.787Z,-7.94
2022-12-19T18:16:02.008Z,-8.10
2022-12-19T18:18:33.698Z,-7.57
2022-12-19T18:21:01.230Z,-7.22
2022-12-19T18:23:29.932Z,-7.24
2022-12-19T18:26:01.435Z,-7.51
2022-12-19T18:28:29.949Z,-7.80
2022-12-19T18:31:02.935Z,-8.06
2022-12-19T18:33:37.603Z,-8.02
2022-12-19T18:36:05.853Z,-7.43
2022-12-19T18:38:32.717Z,-7.34
2022-12-19T18:40:59.722Z,-7.56
2022-12-19T18:43:27.023Z,-7.85
2022-12-19T18:45:54.007Z,-8.14
2022-12-19T18:48:29.288Z,-8.40
2022-12-19T18:50:56.409Z,-8.48
2022-12-19T18:53:35.244Z,-7.93
2022-12-19T18:56:04.242Z,-7.71
2022-12-19T18:58:31.553Z,-7.81
2022-12-19T19:00:59.558Z,-8.03
2022-12-19T19:03:29.232Z,-8.28
2022-12-19T19:05:56.399Z,-8.57
2022-12-19T19:08:25.686Z,-8.66
2022-12-19T19:11:01.271Z,-8.08
2022-12-19T19:13:28.605Z,-7.74
2022-12-19T19:16:00.896Z,-7.83
2022-12-19T19:18:35.956Z,-8.12
2022-12-19T19:21:04.487Z,-8.40
2022-12-19T19:23:40.039Z,-8.65
2022-12-19T19:26:07.018Z,-8.78
2022-12-19T19:28:36.801Z,-8.25
2022-12-19T19:31:04.056Z,-7.91
2022-12-19T19:33:33.891Z,-7.99
2022-12-19T19:36:10.972Z,-8.23
2022-12-19T19:38:40.442Z,-8.52
2022-12-19T19:41:07.430Z,-8.78
2022-12-19T19:43:35.547Z,-8.89
2022-12-19T19:46:02.939Z,-8.28
2022-12-19T19:48:32.550Z,-7.64
2022-12-19T19:50:59.667Z,-7.62
2022-12-19T19:53:26.934Z,-7.88
2022-12-19T19:55:58.962Z,-8.23
2022-12-19T19:58:26.958Z,-8.57
2022-12-19T20:00:53.696Z,-8.85
2022-12-19T20:03:23.325Z,-9.05
2022-12-19T20:05:58.473Z,-8.58
2022-12-19T20:08:25.746Z,-7.72
2022-12-19T20:10:57.542Z,-7.53
2022-12-19T20:13:24.477Z,-7.71
2022-12-19T20:15:51.448Z,-7.98
2022-12-19T20:18:18.584Z,-8.23
2022-12-19T20:20:47.573Z,-8.49
2022-12-19T20:23:14.524Z,-8.70
2022-12-19T20:25:42.690Z,-8.44
2022-12-19T20:28:09.749Z,-7.92
2022-12-19T20:30:37.515Z,-7.85
2022-12-19T20:33:04.661Z,-8.03
2022-12-19T20:35:31.729Z,-8.31
2022-12-19T20:37:58.757Z,-8.57
2022-12-19T20:40:25.792Z,-8.81
2022-12-19T20:42:52.754Z,-8.78
2022-12-19T20:45:21.534Z,-8.19
2022-12-19T20:47:48.547Z,-7.98
2022-12-19T20:50:15.622Z,-8.07
2022-12-19T20:52:42.713Z,-8.25
2022-12-19T20:55:09.731Z,-8.47
2022-12-19T20:57:36.857Z,-8.69
2022-12-19T21:00:05.196Z,-8.66
2022-12-19T21:02:46.595Z,-8.07
2022-12-19T21:05:21.890Z,-7.91
2022-12-19T21:07:48.880Z,-8.02
2022-12-19T21:10:15.956Z,-8.19
2022-12-19T21:12:47.669Z,-8.38
2022-12-19T21:15:15.475Z,-8.57
2022-12-19T21:17:42.457Z,-8.27
2022-12-19T21:20:10.697Z,-7.78
2022-12-19T21:22:37.536Z,-7.70
2022-12-19T21:25:05.516Z,-7.84
2022-12-19T21:27:33.062Z,-8.05
2022-12-19T21:30:00.160Z,-8.27
2022-12-19T21:32:27.263Z,-8.45
2022-12-19T21:34:54.057Z,-8.05
2022-12-19T21:37:21.452Z,-7.63
2022-12-19T21:47:29.423Z,-8.24
2022-12-19T21:49:56.346Z,-8.29
2022-12-19T21:52:23.301Z,-7.77
2022-12-19T21:54:50.233Z,-7.55
2022-12-19T21:57:17.205Z,-7.72
2022-12-19T21:59:44.129Z,-7.95
2022-12-19T22:02:11.186Z,-8.16
2022-12-19T22:04:38.230Z,-8.39
2022-12-19T22:07:05.559Z,-8.24
2022-12-19T22:09:32.468Z,-7.77
2022-12-19T22:11:59.481Z,-7.69
2022-12-19T22:14:26.539Z,-7.85
2022-12-19T22:16:53.430Z,-8.09
2022-12-19T22:19:20.601Z,-8.23
2022-12-19T22:21:47.702Z,-8.25
2022-12-19T22:24:15.423Z,-7.77
2022-12-19T22:26:42.695Z,-7.59
2022-12-19T22:29:11.873Z,-7.77
2022-12-19T22:31:39.106Z,-7.93
2022-12-19T22:34:14.181Z,-8.12
2022-12-19T22:36:41.916Z,-8.25
2022-12-19T22:39:10.794Z,-7.78
2022-12-19T22:41:38.104Z,-7.53
2022-12-19T22:44:05.620Z,-7.57
2022-12-19T22:46:34.216Z,-7.80
2022-12-19T22:49:04.010Z,-7.98
2022-12-19T22:51:31.965Z,-8.19
2022-12-19T22:53:59.663Z,-8.02
2022-12-19T22:56:28.527Z,-7.48
2022-12-19T22:58:56.887Z,-7.35
2022-12-19T23:01:29.282Z,-7.49
2022-12-19T23:03:57.636Z,-7.76
2022-12-19T23:06:25.827Z,-7.94
2022-12-19T23:08:52.727Z,-8.09
2022-12-19T23:11:25.466Z,-7.77
2022-12-19T23:13:52.357Z,-7.17
2022-12-19T23:16:19.442Z,-7.07
2022-12-19T23:18:46.585Z,-7.23
2022-12-19T23:21:18.286Z,-7.50
2022-12-19T23:23:46.749Z,-7.65
2022-12-19T23:26:16.463Z,-7.85
2022-12-19T23:28:51.344Z,-7.82
2022-12-19T23:31:18.348Z,-7.25
2022-12-19T23:33:45.251Z,-7.13
2022-12-19T23:36:12.124Z,-7.11
2022-12-19T23:38:39.076Z,-7.32
2022-12-19T23:41:07.639Z,-7.52
2022-12-19T23:43:35.835Z,-7.63
2022-12-19T23:46:29.665Z,-7.35
2022-12-19T23:48:56.755Z,-6.87
2022-12-19T23:51:25.440Z,-6.84
2022-12-19T23:53:53.332Z,-6.94
2022-12-19T23:56:27.671Z,-7.15
2022-12-19T23:58:54.953Z,-7.30
